sensor_id;sensor_type;location;lat;lon;timestamp;P1;durP1;ratioP1;P2;durP2;ratioP2
23181;SDS011;11759;51.282;6.642;2022-09-01T00:01:42;2.63;;;1.40;;
23181;SDS011;11759;51.282;6.642;2022-09-01T00:04:11;4.82;;;1.33;;
23181;SDS011;11759;51.282;6.642;2022-09-01T00:06:41;10.82;;;1.50;;
23181;SDS011;11759;51.282;6.642;2022-09-01T00:09:10;8.27;;;1.40;;
23181;SDS011;11759;51.282;6.642;2022-09-01T00:11:41;3.42;;;1.65;;
23181;SDS011;11759;51.282;6.642;2022-09-01T00:14:16;4.07;;;1.40;;
23181;SDS011;11759;51.282;6.642;2022-09-01T00:16:59;6.82;;;1.40;;
23181;SDS011;11759;51.282;6.642;2022-09-01T00:19:28;3.75;;;1.40;;
23181;SDS011;11759;51.282;6.642;2022-09-01T00:21:55;2.80;;;1.45;;
23181;SDS011;11759;51.282;6.642;2022-09-01T00:24:22;6.18;;;1.60;;
23181;SDS011;11759;51.282;6.642;2022-09-01T00:26:51;2.97;;;1.40;;
23181;SDS011;11759;51.282;6.642;2022-09-01T00:29:17;2.22;;;1.50;;
23181;SDS011;11759;51.282;6.642;2022-09-01T00:31:44;3.85;;;1.70;;
23181;SDS011;11759;51.282;6.642;2022-09-01T00:34:12;12.98;;;1.60;;
23181;SDS011;11759;51.282;6.642;2022-09-01T00:36:38;4.13;;;1.52;;
23181;SDS011;11759;51.282;6.642;2022-09-01T00:39:05;4.25;;;1.42;;
23181;SDS011;11759;51.282;6.642;2022-09-01T00:41:34;3.63;;;1.50;;
23181;SDS011;11759;51.282;6.642;2022-09-01T00:44:05;3.58;;;1.40;;
23181;SDS011;11759;51.282;6.642;2022-09-01T00:46:35;4.70;;;1.52;;
23181;SDS011;11759;51.282;6.642;2022-09-01T00:49:19;5.55;;;1.70;;
23181;SDS011;11759;51.282;6.642;2022-09-01T00:52:12;3.90;;;1.52;;
23181;SDS011;11759;51.282;6.642;2022-09-01T00:54:48;12.48;;;1.45;;
23181;SDS011;11759;51.282;6.642;2022-09-01T00:57:17;4.03;;;1.58;;
23181;SDS011;11759;51.282;6.642;2022-09-01T01:00:27;4.72;;;1.35;;
23181;SDS011;11759;51.282;6.642;2022-09-01T01:02:37;4.80;;;1.60;;
23181;SDS011;11759;51.282;6.642;2022-09-01T01:05:05;9.90;;;1.80;;
23181;SDS011;11759;51.282;6.642;2022-09-01T01:07:37;3.05;;;1.58;;
23181;SDS011;11759;51.282;6.642;2022-09-01T01:10:13;7.47;;;1.80;;
23181;SDS011;11759;51.282;6.642;2022-09-01T01:12:42;5.15;;;1.48;;
23181;SDS011;11759;51.282;6.642;2022-09-01T01:15:10;4.57;;;1.80;;
23181;SDS011;11759;51.282;6.642;2022-09-01T01:17:38;4.40;;;1.55;;
23181;SDS011;11759;51.282;6.642;2022-09-01T01:20:05;4.90;;;1.60;;
23181;SDS011;11759;51.282;6.642;2022-09-01T01:23:14;4.43;;;1.58;;
23181;SDS011;11759;51.282;6.642;2022-09-01T01:25:50;5.57;;;1.65;;
23181;SDS011;11759;51.282;6.642;2022-09-01T01:28:21;5.00;;;1.58;;
23181;SDS011;11759;51.282;6.642;2022-09-01T01:30:52;4.30;;;1.73;;
23181;SDS011;11759;51.282;6.642;2022-09-01T01:35:51;3.55;;;1.45;;
23181;SDS011;11759;51.282;6.642;2022-09-01T01:38:18;5.97;;;1.70;;
23181;SDS011;11759;51.282;6.642;2022-09-01T01:40:49;8.73;;;2.28;;
23181;SDS011;11759;51.282;6.642;2022-09-01T01:43:25;5.35;;;1.40;;
23181;SDS011;11759;51.282;6.642;2022-09-01T01:45:53;7.20;;;1.70;;
23181;SDS011;11759;51.282;6.642;2022-09-01T01:48:25;3.35;;;1.67;;
23181;SDS011;11759;51.282;6.642;2022-09-01T01:50:53;2.58;;;1.63;;
23181;SDS011;11759;51.282;6.642;2022-09-01T01:53:23;7.45;;;1.50;;
23181;SDS011;11759;51.282;6.642;2022-09-01T01:55:51;3.47;;;1.65;;
23181;SDS011;11759;51.282;6.642;2022-09-01T01:58:19;4.40;;;1.65;;
23181;SDS011;11759;51.282;6.642;2022-09-01T02:00:47;5.35;;;2.05;;
23181;SDS011;11759;51.282;6.642;2022-09-01T02:03:17;2.35;;;1.42;;
23181;SDS011;11759;51.282;6.642;2022-09-01T02:08:18;4.97;;;1.80;;
23181;SDS011;11759;51.282;6.642;2022-09-01T02:10:49;6.32;;;1.60;;
23181;SDS011;11759;51.282;6.642;2022-09-01T02:13:17;3.17;;;1.60;;
23181;SDS011;11759;51.282;6.642;2022-09-01T02:15:48;3.20;;;1.48;;
23181;SDS011;11759;51.282;6.642;2022-09-01T02:18:18;3.33;;;1.50;;
23181;SDS011;11759;51.282;6.642;2022-09-01T02:23:15;5.22;;;1.67;;
23181;SDS011;11759;51.282;6.642;2022-09-01T02:25:43;7.05;;;1.30;;
23181;SDS011;11759;51.282;6.642;2022-09-01T02:28:33;6.75;;;2.10;;
23181;SDS011;11759;51.282;6.642;2022-09-01T02:33:30;7.13;;;1.80;;
23181;SDS011;11759;51.282;6.642;2022-09-01T02:36:00;3.28;;;1.77;;
23181;SDS011;11759;51.282;6.642;2022-09-01T02:41:00;5.93;;;1.60;;
23181;SDS011;11759;51.282;6.642;2022-09-01T02:43:28;4.72;;;2.60;;
23181;SDS011;11759;51.282;6.642;2022-09-01T02:45:57;6.57;;;2.28;;
23181;SDS011;11759;51.282;6.642;2022-09-01T02:48:33;7.00;;;2.30;;
23181;SDS011;11759;51.282;6.642;2022-09-01T02:51:05;9.45;;;1.83;;
23181;SDS011;11759;51.282;6.642;2022-09-01T02:53:34;3.03;;;1.87;;
23181;SDS011;11759;51.282;6.642;2022-09-01T02:56:02;5.43;;;1.75;;
23181;SDS011;11759;51.282;6.642;2022-09-01T02:58:30;6.80;;;1.70;;
23181;SDS011;11759;51.282;6.642;2022-09-01T03:00:59;6.00;;;2.10;;
23181;SDS011;11759;51.282;6.642;2022-09-01T03:03:28;3.10;;;1.90;;
23181;SDS011;11759;51.282;6.642;2022-09-01T03:05:54;8.23;;;2.17;;
23181;SDS011;11759;51.282;6.642;2022-09-01T03:08:22;6.82;;;1.80;;
23181;SDS011;11759;51.282;6.642;2022-09-01T03:10:50;3.38;;;1.70;;
23181;SDS011;11759;51.282;6.642;2022-09-01T03:13:21;4.00;;;2.00;;
23181;SDS011;11759;51.282;6.642;2022-09-01T03:15:49;8.38;;;2.38;;
23181;SDS011;11759;51.282;6.642;2022-09-01T03:18:16;4.15;;;2.20;;
23181;SDS011;11759;51.282;6.642;2022-09-01T03:20:45;4.45;;;1.80;;
23181;SDS011;11759;51.282;6.642;2022-09-01T03:23:14;2.55;;;1.75;;
23181;SDS011;11759;51.282;6.642;2022-09-01T03:25:46;6.30;;;2.30;;
23181;SDS011;11759;51.282;6.642;2022-09-01T03:28:13;5.65;;;1.92;;
23181;SDS011;11759;51.282;6.642;2022-09-01T03:30:44;7.50;;;2.28;;
23181;SDS011;11759;51.282;6.642;2022-09-01T03:33:12;5.57;;;1.90;;
23181;SDS011;11759;51.282;6.642;2022-09-01T03:35:39;3.92;;;1.83;;
23181;SDS011;11759;51.282;6.642;2022-09-01T03:38:07;4.78;;;1.85;;
23181;SDS011;11759;51.282;6.642;2022-09-01T03:40:35;6.85;;;2.20;;
23181;SDS011;11759;51.282;6.642;2022-09-01T03:43:03;3.97;;;2.17;;
23181;SDS011;11759;51.282;6.642;2022-09-01T03:45:31;3.28;;;1.83;;
23181;SDS011;11759;51.282;6.642;2022-09-01T03:48:04;3.47;;;1.92;;
23181;SDS011;11759;51.282;6.642;2022-09-01T03:50:35;4.93;;;1.98;;
23181;SDS011;11759;51.282;6.642;2022-09-01T03:53:06;3.10;;;1.70;;
23181;SDS011;11759;51.282;6.642;2022-09-01T03:55:34;7.55;;;2.22;;
23181;SDS011;11759;51.282;6.642;2022-09-01T03:58:04;9.02;;;2.08;;
23181;SDS011;11759;51.282;6.642;2022-09-01T04:00:37;3.95;;;1.88;;
23181;SDS011;11759;51.282;6.642;2022-09-01T04:03:13;6.53;;;2.33;;
23181;SDS011;11759;51.282;6.642;2022-09-01T04:05:53;5.93;;;2.30;;
23181;SDS011;11759;51.282;6.642;2022-09-01T04:08:20;6.85;;;2.08;;
23181;SDS011;11759;51.282;6.642;2022-09-01T04:11:00;4.65;;;1.98;;
23181;SDS011;11759;51.282;6.642;2022-09-01T04:13:35;11.10;;;2.47;;
23181;SDS011;11759;51.282;6.642;2022-09-01T04:16:04;7.22;;;2.30;;
23181;SDS011;11759;51.282;6.642;2022-09-01T04:18:58;8.82;;;2.08;;
23181;SDS011;11759;51.282;6.642;2022-09-01T04:21:26;4.32;;;2.45;;
23181;SDS011;11759;51.282;6.642;2022-09-01T04:23:56;6.45;;;2.13;;
23181;SDS011;11759;51.282;6.642;2022-09-01T04:26:30;5.97;;;2.17;;
23181;SDS011;11759;51.282;6.642;2022-09-01T04:28:59;5.70;;;2.50;;
23181;SDS011;11759;51.282;6.642;2022-09-01T04:31:26;8.65;;;2.55;;
23181;SDS011;11759;51.282;6.642;2022-09-01T04:33:52;4.78;;;2.15;;
23181;SDS011;11759;51.282;6.642;2022-09-01T04:36:24;5.05;;;1.95;;
23181;SDS011;11759;51.282;6.642;2022-09-01T04:38:55;4.22;;;1.90;;
23181;SDS011;11759;51.282;6.642;2022-09-01T04:41:26;5.32;;;2.20;;
23181;SDS011;11759;51.282;6.642;2022-09-01T04:43:58;6.95;;;2.30;;
23181;SDS011;11759;51.282;6.642;2022-09-01T04:46:35;5.72;;;2.20;;
23181;SDS011;11759;51.282;6.642;2022-09-01T04:49:05;4.70;;;2.03;;
23181;SDS011;11759;51.282;6.642;2022-09-01T04:51:39;4.25;;;2.28;;
23181;SDS011;11759;51.282;6.642;2022-09-01T04:54:07;6.03;;;2.00;;
23181;SDS011;11759;51.282;6.642;2022-09-01T04:56:45;4.68;;;2.15;;
23181;SDS011;11759;51.282;6.642;2022-09-01T04:59:18;4.00;;;1.92;;
23181;SDS011;11759;51.282;6.642;2022-09-01T05:01:51;4.93;;;2.20;;
23181;SDS011;11759;51.282;6.642;2022-09-01T05:04:22;6.13;;;2.13;;
23181;SDS011;11759;51.282;6.642;2022-09-01T05:06:54;10.20;;;2.38;;
23181;SDS011;11759;51.282;6.642;2022-09-01T05:09:28;4.53;;;1.85;;
23181;SDS011;11759;51.282;6.642;2022-09-01T05:12:10;4.55;;;1.88;;
23181;SDS011;11759;51.282;6.642;2022-09-01T05:14:44;3.30;;;1.88;;
23181;SDS011;11759;51.282;6.642;2022-09-01T05:17:16;3.67;;;2.08;;
23181;SDS011;11759;51.282;6.642;2022-09-01T05:19:45;7.82;;;2.40;;
23181;SDS011;11759;51.282;6.642;2022-09-01T05:22:14;6.82;;;2.20;;
23181;SDS011;11759;51.282;6.642;2022-09-01T05:25:07;5.10;;;2.00;;
23181;SDS011;11759;51.282;6.642;2022-09-01T05:27:42;3.05;;;2.00;;
23181;SDS011;11759;51.282;6.642;2022-09-01T05:30:20;9.27;;;2.30;;
23181;SDS011;11759;51.282;6.642;2022-09-01T05:32:47;7.95;;;2.38;;
23181;SDS011;11759;51.282;6.642;2022-09-01T05:35:15;6.35;;;2.58;;
23181;SDS011;11759;51.282;6.642;2022-09-01T05:37:43;4.60;;;2.20;;
23181;SDS011;11759;51.282;6.642;2022-09-01T05:40:10;6.30;;;2.17;;
23181;SDS011;11759;51.282;6.642;2022-09-01T05:42:43;9.98;;;2.92;;
23181;SDS011;11759;51.282;6.642;2022-09-01T05:45:10;7.82;;;3.00;;
23181;SDS011;11759;51.282;6.642;2022-09-01T05:47:38;7.97;;;2.40;;
23181;SDS011;11759;51.282;6.642;2022-09-01T05:50:06;9.10;;;3.13;;
23181;SDS011;11759;51.282;6.642;2022-09-01T05:52:40;13.05;;;2.72;;
23181;SDS011;11759;51.282;6.642;2022-09-01T05:55:09;6.25;;;2.53;;
23181;SDS011;11759;51.282;6.642;2022-09-01T05:57:40;10.13;;;2.33;;
23181;SDS011;11759;51.282;6.642;2022-09-01T06:00:14;7.70;;;2.33;;
23181;SDS011;11759;51.282;6.642;2022-09-01T06:02:46;4.13;;;2.17;;
23181;SDS011;11759;51.282;6.642;2022-09-01T06:05:18;5.80;;;2.13;;
23181;SDS011;11759;51.282;6.642;2022-09-01T06:07:48;7.90;;;2.40;;
23181;SDS011;11759;51.282;6.642;2022-09-01T06:10:16;9.27;;;2.60;;
23181;SDS011;11759;51.282;6.642;2022-09-01T06:12:43;6.80;;;2.38;;
23181;SDS011;11759;51.282;6.642;2022-09-01T06:17:45;3.90;;;2.25;;
23181;SDS011;11759;51.282;6.642;2022-09-01T06:20:13;5.22;;;2.53;;
23181;SDS011;11759;51.282;6.642;2022-09-01T06:22:43;5.72;;;2.30;;
23181;SDS011;11759;51.282;6.642;2022-09-01T06:25:10;7.10;;;2.17;;
23181;SDS011;11759;51.282;6.642;2022-09-01T06:27:41;6.73;;;2.50;;
23181;SDS011;11759;51.282;6.642;2022-09-01T06:30:10;9.88;;;3.03;;
23181;SDS011;11759;51.282;6.642;2022-09-01T06:32:53;7.90;;;2.05;;
23181;SDS011;11759;51.282;6.642;2022-09-01T06:35:20;6.78;;;2.13;;
23181;SDS011;11759;51.282;6.642;2022-09-01T06:37:50;9.73;;;2.47;;
23181;SDS011;11759;51.282;6.642;2022-09-01T06:40:32;5.78;;;2.33;;
23181;SDS011;11759;51.282;6.642;2022-09-01T06:43:01;6.55;;;2.70;;
23181;SDS011;11759;51.282;6.642;2022-09-01T06:45:39;5.15;;;2.30;;
23181;SDS011;11759;51.282;6.642;2022-09-01T06:48:08;5.40;;;1.85;;
23181;SDS011;11759;51.282;6.642;2022-09-01T06:50:38;8.13;;;2.20;;
23181;SDS011;11759;51.282;6.642;2022-09-01T06:53:25;12.00;;;2.10;;
23181;SDS011;11759;51.282;6.642;2022-09-01T06:56:02;7.03;;;2.38;;
23181;SDS011;11759;51.282;6.642;2022-09-01T06:58:29;6.43;;;2.30;;
23181;SDS011;11759;51.282;6.642;2022-09-01T07:00:56;4.35;;;2.50;;
23181;SDS011;11759;51.282;6.642;2022-09-01T07:03:24;9.02;;;2.60;;
23181;SDS011;11759;51.282;6.642;2022-09-01T07:06:10;6.35;;;2.30;;
23181;SDS011;11759;51.282;6.642;2022-09-01T07:09:20;6.68;;;2.75;;
23181;SDS011;11759;51.282;6.642;2022-09-01T07:12:16;4.72;;;2.10;;
23181;SDS011;11759;51.282;6.642;2022-09-01T07:14:54;6.35;;;2.30;;
23181;SDS011;11759;51.282;6.642;2022-09-01T07:17:46;10.70;;;2.50;;
23181;SDS011;11759;51.282;6.642;2022-09-01T07:20:24;7.25;;;2.75;;
23181;SDS011;11759;51.282;6.642;2022-09-01T07:22:55;9.00;;;2.20;;
23181;SDS011;11759;51.282;6.642;2022-09-01T07:25:40;10.77;;;2.28;;
23181;SDS011;11759;51.282;6.642;2022-09-01T07:28:31;9.82;;;2.15;;
23181;SDS011;11759;51.282;6.642;2022-09-01T07:31:02;5.45;;;2.30;;
23181;SDS011;11759;51.282;6.642;2022-09-01T07:33:56;4.72;;;2.05;;
23181;SDS011;11759;51.282;6.642;2022-09-01T07:36:46;7.88;;;1.80;;
23181;SDS011;11759;51.282;6.642;2022-09-01T07:39:36;8.20;;;2.03;;
23181;SDS011;11759;51.282;6.642;2022-09-01T07:42:44;7.53;;;1.80;;
23181;SDS011;11759;51.282;6.642;2022-09-01T07:45:55;10.60;;;2.08;;
23181;SDS011;11759;51.282;6.642;2022-09-01T07:48:25;9.80;;;1.88;;
23181;SDS011;11759;51.282;6.642;2022-09-01T07:51:13;5.53;;;1.92;;
23181;SDS011;11759;51.282;6.642;2022-09-01T07:54:02;14.50;;;2.28;;
23181;SDS011;11759;51.282;6.642;2022-09-01T07:56:29;9.30;;;2.58;;
23181;SDS011;11759;51.282;6.642;2022-09-01T07:58:57;11.18;;;2.05;;
23181;SDS011;11759;51.282;6.642;2022-09-01T08:01:25;10.93;;;2.28;;
23181;SDS011;11759;51.282;6.642;2022-09-01T08:03:57;6.90;;;1.63;;
23181;SDS011;11759;51.282;6.642;2022-09-01T08:06:26;6.43;;;1.80;;
23181;SDS011;11759;51.282;6.642;2022-09-01T08:08:56;8.10;;;1.73;;
23181;SDS011;11759;51.282;6.642;2022-09-01T08:11:26;9.63;;;2.10;;
23181;SDS011;11759;51.282;6.642;2022-09-01T08:14:14;4.25;;;1.48;;
23181;SDS011;11759;51.282;6.642;2022-09-01T08:16:43;4.32;;;1.63;;
23181;SDS011;11759;51.282;6.642;2022-09-01T08:19:19;4.50;;;1.65;;
23181;SDS011;11759;51.282;6.642;2022-09-01T08:22:08;6.88;;;1.38;;
23181;SDS011;11759;51.282;6.642;2022-09-01T08:24:47;4.00;;;1.50;;
23181;SDS011;11759;51.282;6.642;2022-09-01T08:27:15;3.95;;;1.60;;
23181;SDS011;11759;51.282;6.642;2022-09-01T08:29:42;2.70;;;1.63;;
23181;SDS011;11759;51.282;6.642;2022-09-01T08:32:09;3.08;;;1.30;;
23181;SDS011;11759;51.282;6.642;2022-09-01T08:34:36;3.40;;;1.42;;
23181;SDS011;11759;51.282;6.642;2022-09-01T08:37:04;2.10;;;1.30;;
23181;SDS011;11759;51.282;6.642;2022-09-01T08:39:31;2.50;;;1.25;;
23181;SDS011;11759;51.282;6.642;2022-09-01T08:47:17;4.97;;;1.40;;
23181;SDS011;11759;51.282;6.642;2022-09-01T08:49:55;6.60;;;1.35;;
23181;SDS011;11759;51.282;6.642;2022-09-01T08:53:04;4.95;;;1.58;;
23181;SDS011;11759;51.282;6.642;2022-09-01T08:55:44;6.43;;;1.40;;
23181;SDS011;11759;51.282;6.642;2022-09-01T08:58:14;3.33;;;1.27;;
23181;SDS011;11759;51.282;6.642;2022-09-01T09:01:16;3.00;;;1.10;;
23181;SDS011;11759;51.282;6.642;2022-09-01T09:06:31;3.03;;;1.13;;
23181;SDS011;11759;51.282;6.642;2022-09-01T09:09:13;3.72;;;1.20;;
23181;SDS011;11759;51.282;6.642;2022-09-01T09:16:53;1.98;;;1.08;;
23181;SDS011;11759;51.282;6.642;2022-09-01T09:19:24;4.07;;;0.98;;
23181;SDS011;11759;51.282;6.642;2022-09-01T09:21:53;3.28;;;1.25;;
23181;SDS011;11759;51.282;6.642;2022-09-01T09:27:19;6.93;;;1.25;;
23181;SDS011;11759;51.282;6.642;2022-09-01T09:29:53;3.05;;;0.90;;
23181;SDS011;11759;51.282;6.642;2022-09-01T09:32:46;3.08;;;1.02;;
23181;SDS011;11759;51.282;6.642;2022-09-01T09:35:40;3.80;;;1.52;;
23181;SDS011;11759;51.282;6.642;2022-09-01T09:40:54;3.65;;;0.90;;
23181;SDS011;11759;51.282;6.642;2022-09-01T09:43:45;2.55;;;1.08;;
23181;SDS011;11759;51.282;6.642;2022-09-01T09:51:36;3.83;;;1.00;;
23181;SDS011;11759;51.282;6.642;2022-09-01T09:54:11;4.38;;;1.10;;
23181;SDS011;11759;51.282;6.642;2022-09-01T09:56:41;3.28;;;1.20;;
23181;SDS011;11759;51.282;6.642;2022-09-01T09:59:16;3.75;;;1.20;;
23181;SDS011;11759;51.282;6.642;2022-09-01T10:05:01;7.50;;;0.90;;
23181;SDS011;11759;51.282;6.642;2022-09-01T10:07:49;4.10;;;1.35;;
23181;SDS011;11759;51.282;6.642;2022-09-01T10:12:56;6.75;;;1.23;;
23181;SDS011;11759;51.282;6.642;2022-09-01T10:15:25;3.05;;;1.35;;
23181;SDS011;11759;51.282;6.642;2022-09-01T10:17:58;2.15;;;0.80;;
23181;SDS011;11759;51.282;6.642;2022-09-01T10:21:00;6.72;;;1.20;;
23181;SDS011;11759;51.282;6.642;2022-09-01T10:23:30;4.47;;;1.10;;
23181;SDS011;11759;51.282;6.642;2022-09-01T10:26:01;1.20;;;0.75;;
23181;SDS011;11759;51.282;6.642;2022-09-01T10:28:36;2.17;;;0.95;;
23181;SDS011;11759;51.282;6.642;2022-09-01T10:33:42;2.78;;;1.30;;
23181;SDS011;11759;51.282;6.642;2022-09-01T10:36:09;1.25;;;0.75;;
23181;SDS011;11759;51.282;6.642;2022-09-01T10:38:36;2.95;;;1.13;;
23181;SDS011;11759;51.282;6.642;2022-09-01T10:41:04;12.32;;;1.05;;
23181;SDS011;11759;51.282;6.642;2022-09-01T10:43:41;9.20;;;1.20;;
23181;SDS011;11759;51.282;6.642;2022-09-01T10:48:51;3.58;;;0.80;;
23181;SDS011;11759;51.282;6.642;2022-09-01T10:54:04;2.10;;;0.98;;
23181;SDS011;11759;51.282;6.642;2022-09-01T10:56:47;3.00;;;1.10;;
23181;SDS011;11759;51.282;6.642;2022-09-01T10:59:27;4.05;;;1.00;;
23181;SDS011;11759;51.282;6.642;2022-09-01T11:10:20;2.75;;;1.15;;
23181;SDS011;11759;51.282;6.642;2022-09-01T11:13:03;10.10;;;1.65;;
23181;SDS011;11759;51.282;6.642;2022-09-01T11:15:48;5.28;;;1.00;;
23181;SDS011;11759;51.282;6.642;2022-09-01T11:20:53;2.50;;;1.00;;
23181;SDS011;11759;51.282;6.642;2022-09-01T11:23:25;2.15;;;1.05;;
23181;SDS011;11759;51.282;6.642;2022-09-01T11:25:56;2.92;;;1.00;;
23181;SDS011;11759;51.282;6.642;2022-09-01T11:28:44;3.42;;;1.05;;
23181;SDS011;11759;51.282;6.642;2022-09-01T11:31:53;2.55;;;0.90;;
23181;SDS011;11759;51.282;6.642;2022-09-01T11:34:19;2.63;;;1.02;;
23181;SDS011;11759;51.282;6.642;2022-09-01T11:36:53;3.00;;;1.10;;
23181;SDS011;11759;51.282;6.642;2022-09-01T11:39:42;2.30;;;1.15;;
23181;SDS011;11759;51.282;6.642;2022-09-01T11:44:58;3.13;;;1.13;;
23181;SDS011;11759;51.282;6.642;2022-09-01T11:47:28;3.75;;;1.20;;
23181;SDS011;11759;51.282;6.642;2022-09-01T11:52:28;2.75;;;0.98;;
23181;SDS011;11759;51.282;6.642;2022-09-01T11:54:57;2.33;;;1.20;;
23181;SDS011;11759;51.282;6.642;2022-09-01T11:57:31;5.13;;;1.20;;
23181;SDS011;11759;51.282;6.642;2022-09-01T11:59:59;2.92;;;1.13;;
23181;SDS011;11759;51.282;6.642;2022-09-01T12:02:40;10.73;;;1.52;;
23181;SDS011;11759;51.282;6.642;2022-09-01T12:05:35;3.50;;;1.40;;
23181;SDS011;11759;51.282;6.642;2022-09-01T12:08:04;3.08;;;1.13;;
23181;SDS011;11759;51.282;6.642;2022-09-01T12:10:39;2.83;;;1.40;;
23181;SDS011;11759;51.282;6.642;2022-09-01T12:13:09;6.57;;;1.20;;
23181;SDS011;11759;51.282;6.642;2022-09-01T12:15:53;3.85;;;1.10;;
23181;SDS011;11759;51.282;6.642;2022-09-01T12:18:48;2.28;;;1.20;;
23181;SDS011;11759;51.282;6.642;2022-09-01T12:21:19;5.38;;;1.38;;
23181;SDS011;11759;51.282;6.642;2022-09-01T12:23:49;2.83;;;1.20;;
23181;SDS011;11759;51.282;6.642;2022-09-01T12:26:21;4.43;;;1.02;;
23181;SDS011;11759;51.282;6.642;2022-09-01T12:28:50;1.58;;;1.08;;
23181;SDS011;11759;51.282;6.642;2022-09-01T12:31:19;2.20;;;1.30;;
23181;SDS011;11759;51.282;6.642;2022-09-01T12:33:49;6.43;;;1.40;;
23181;SDS011;11759;51.282;6.642;2022-09-01T12:38:54;3.92;;;1.20;;
23181;SDS011;11759;51.282;6.642;2022-09-01T12:41:41;2.35;;;1.48;;
23181;SDS011;11759;51.282;6.642;2022-09-01T12:47:03;2.60;;;1.20;;
23181;SDS011;11759;51.282;6.642;2022-09-01T12:49:41;2.00;;;1.02;;
23181;SDS011;11759;51.282;6.642;2022-09-01T12:54:45;6.20;;;1.25;;
23181;SDS011;11759;51.282;6.642;2022-09-01T12:57:24;2.42;;;1.30;;
23181;SDS011;11759;51.282;6.642;2022-09-01T13:08:11;3.38;;;1.20;;
23181;SDS011;11759;51.282;6.642;2022-09-01T13:10:41;2.78;;;1.02;;
23181;SDS011;11759;51.282;6.642;2022-09-01T13:13:19;3.40;;;1.20;;
23181;SDS011;11759;51.282;6.642;2022-09-01T13:15:48;2.17;;;1.23;;
23181;SDS011;11759;51.282;6.642;2022-09-01T13:18:16;1.85;;;1.15;;
23181;SDS011;11759;51.282;6.642;2022-09-01T13:20:45;3.15;;;1.23;;
23181;SDS011;11759;51.282;6.642;2022-09-01T13:23:12;2.88;;;1.20;;
23181;SDS011;11759;51.282;6.642;2022-09-01T13:25:39;4.57;;;1.70;;
23181;SDS011;11759;51.282;6.642;2022-09-01T13:28:09;5.80;;;1.40;;
23181;SDS011;11759;51.282;6.642;2022-09-01T13:30:36;3.58;;;1.40;;
23181;SDS011;11759;51.282;6.642;2022-09-01T13:33:04;2.97;;;1.27;;
23181;SDS011;11759;51.282;6.642;2022-09-01T13:35:48;2.25;;;1.20;;
23181;SDS011;11759;51.282;6.642;2022-09-01T13:38:16;6.93;;;1.63;;
23181;SDS011;11759;51.282;6.642;2022-09-01T13:40:44;2.55;;;1.35;;
23181;SDS011;11759;51.282;6.642;2022-09-01T13:43:12;1.77;;;1.33;;
23181;SDS011;11759;51.282;6.642;2022-09-01T13:45:40;4.70;;;1.40;;
23181;SDS011;11759;51.282;6.642;2022-09-01T13:48:10;2.83;;;1.10;;
23181;SDS011;11759;51.282;6.642;2022-09-01T13:50:42;2.60;;;1.20;;
23181;SDS011;11759;51.282;6.642;2022-09-01T13:53:30;2.67;;;1.33;;
23181;SDS011;11759;51.282;6.642;2022-09-01T13:55:58;2.47;;;1.30;;
23181;SDS011;11759;51.282;6.642;2022-09-01T13:58:24;1.35;;;1.23;;
23181;SDS011;11759;51.282;6.642;2022-09-01T14:00:51;3.15;;;1.10;;
23181;SDS011;11759;51.282;6.642;2022-09-01T14:03:19;2.28;;;1.20;;
23181;SDS011;11759;51.282;6.642;2022-09-01T14:05:48;4.20;;;1.30;;
23181;SDS011;11759;51.282;6.642;2022-09-01T14:08:16;3.63;;;1.48;;
23181;SDS011;11759;51.282;6.642;2022-09-01T14:10:46;2.10;;;1.40;;
23181;SDS011;11759;51.282;6.642;2022-09-01T14:13:16;2.15;;;1.10;;
23181;SDS011;11759;51.282;6.642;2022-09-01T14:15:44;5.13;;;1.45;;
23181;SDS011;11759;51.282;6.642;2022-09-01T14:18:12;1.70;;;1.10;;
23181;SDS011;11759;51.282;6.642;2022-09-01T14:20:41;1.77;;;1.27;;
23181;SDS011;11759;51.282;6.642;2022-09-01T14:23:09;3.60;;;1.10;;
23181;SDS011;11759;51.282;6.642;2022-09-01T14:25:36;3.00;;;1.30;;
23181;SDS011;11759;51.282;6.642;2022-09-01T14:28:07;4.35;;;1.63;;
23181;SDS011;11759;51.282;6.642;2022-09-01T14:30:34;2.70;;;1.23;;
23181;SDS011;11759;51.282;6.642;2022-09-01T14:33:01;4.68;;;1.50;;
23181;SDS011;11759;51.282;6.642;2022-09-01T14:35:29;9.52;;;1.58;;
23181;SDS011;11759;51.282;6.642;2022-09-01T14:37:58;4.05;;;1.30;;
23181;SDS011;11759;51.282;6.642;2022-09-01T14:40:26;5.13;;;1.60;;
23181;SDS011;11759;51.282;6.642;2022-09-01T14:42:54;4.28;;;1.35;;
23181;SDS011;11759;51.282;6.642;2022-09-01T14:45:22;3.45;;;1.40;;
23181;SDS011;11759;51.282;6.642;2022-09-01T14:47:52;7.00;;;1.70;;
23181;SDS011;11759;51.282;6.642;2022-09-01T14:50:21;7.53;;;1.70;;
23181;SDS011;11759;51.282;6.642;2022-09-01T14:52:50;8.07;;;1.50;;
23181;SDS011;11759;51.282;6.642;2022-09-01T14:55:19;3.28;;;1.50;;
23181;SDS011;11759;51.282;6.642;2022-09-01T14:57:47;3.85;;;1.45;;
23181;SDS011;11759;51.282;6.642;2022-09-01T15:00:14;2.20;;;1.30;;
23181;SDS011;11759;51.282;6.642;2022-09-01T15:02:42;2.40;;;1.45;;
23181;SDS011;11759;51.282;6.642;2022-09-01T15:05:09;4.00;;;1.40;;
23181;SDS011;11759;51.282;6.642;2022-09-01T15:07:37;3.10;;;1.30;;
23181;SDS011;11759;51.282;6.642;2022-09-01T15:10:04;4.78;;;2.00;;
23181;SDS011;11759;51.282;6.642;2022-09-01T15:12:33;2.38;;;1.50;;
23181;SDS011;11759;51.282;6.642;2022-09-01T15:14:59;2.05;;;1.33;;
23181;SDS011;11759;51.282;6.642;2022-09-01T15:17:27;3.33;;;1.50;;
23181;SDS011;11759;51.282;6.642;2022-09-01T15:19:54;3.90;;;1.58;;
23181;SDS011;11759;51.282;6.642;2022-09-01T15:22:21;9.48;;;1.40;;
23181;SDS011;11759;51.282;6.642;2022-09-01T15:24:47;6.10;;;1.50;;
23181;SDS011;11759;51.282;6.642;2022-09-01T15:27:14;4.70;;;1.80;;
23181;SDS011;11759;51.282;6.642;2022-09-01T15:29:40;3.10;;;1.25;;
23181;SDS011;11759;51.282;6.642;2022-09-01T15:32:13;6.88;;;1.55;;
23181;SDS011;11759;51.282;6.642;2022-09-01T15:34:53;2.20;;;1.60;;
23181;SDS011;11759;51.282;6.642;2022-09-01T15:37:20;3.10;;;1.30;;
23181;SDS011;11759;51.282;6.642;2022-09-01T15:39:47;2.17;;;1.30;;
23181;SDS011;11759;51.282;6.642;2022-09-01T15:42:13;3.88;;;1.40;;
23181;SDS011;11759;51.282;6.642;2022-09-01T15:44:42;5.10;;;1.50;;
23181;SDS011;11759;51.282;6.642;2022-09-01T15:47:09;2.22;;;1.33;;
23181;SDS011;11759;51.282;6.642;2022-09-01T15:49:35;2.13;;;1.52;;
23181;SDS011;11759;51.282;6.642;2022-09-01T15:52:02;2.53;;;1.40;;
23181;SDS011;11759;51.282;6.642;2022-09-01T15:54:28;4.80;;;1.55;;
23181;SDS011;11759;51.282;6.642;2022-09-01T15:56:56;3.78;;;1.58;;
23181;SDS011;11759;51.282;6.642;2022-09-01T15:59:22;2.45;;;1.33;;
23181;SDS011;11759;51.282;6.642;2022-09-01T16:01:49;4.15;;;1.38;;
23181;SDS011;11759;51.282;6.642;2022-09-01T16:04:18;2.08;;;1.23;;
23181;SDS011;11759;51.282;6.642;2022-09-01T16:06:52;2.65;;;1.30;;
23181;SDS011;11759;51.282;6.642;2022-09-01T16:09:21;8.93;;;1.40;;
23181;SDS011;11759;51.282;6.642;2022-09-01T16:11:48;4.78;;;1.50;;
23181;SDS011;11759;51.282;6.642;2022-09-01T16:14:15;2.42;;;1.27;;
23181;SDS011;11759;51.282;6.642;2022-09-01T16:16:50;4.03;;;1.40;;
23181;SDS011;11759;51.282;6.642;2022-09-01T16:24:28;10.55;;;1.55;;
23181;SDS011;11759;51.282;6.642;2022-09-01T16:26:55;4.10;;;1.33;;
23181;SDS011;11759;51.282;6.642;2022-09-01T16:32:27;3.15;;;1.50;;
23181;SDS011;11759;51.282;6.642;2022-09-01T16:34:54;3.13;;;1.35;;
23181;SDS011;11759;51.282;6.642;2022-09-01T16:42:52;1.73;;;1.10;;
23181;SDS011;11759;51.282;6.642;2022-09-01T16:50:56;7.50;;;1.67;;
23181;SDS011;11759;51.282;6.642;2022-09-01T16:59:27;2.95;;;1.20;;
23181;SDS011;11759;51.282;6.642;2022-09-01T17:04:44;6.50;;;1.27;;
23181;SDS011;11759;51.282;6.642;2022-09-01T17:07:19;4.03;;;1.10;;
23181;SDS011;11759;51.282;6.642;2022-09-01T17:12:25;3.25;;;1.48;;
23181;SDS011;11759;51.282;6.642;2022-09-01T17:15:06;2.45;;;1.33;;
23181;SDS011;11759;51.282;6.642;2022-09-01T17:17:54;6.25;;;2.03;;